Timeline UpdatesTrip UpdatesNews PostsPvt PostsTravel TipsAdmin PostsConv PostsFollowed PostsChat RequestsBlog PostsPNR Posts

Disclaimer
Search
 
 
Wed Jul 23, 2014 05:09:41 ISTHomeTrainsΣChainsAtlasPNRForumGalleryNewsFAQTripsMembersLoginFeedback
No Recent News for this Train
Other Trains in the News **new
Latest...
.
Thu Nov 14, 2013 (06:37PM)
⇐ Return Journey: Train# 19019

19020/Dehradun - Mumbai Bandra Terminus Express

Apr 15 2014 (1:35PM)
Change Departure Station:
Change Arrival Station:
Post a Train Travel TipPost a Train Travel Tip **new
Post a Comment/Question/Picture/VideoPost a Comment/Question/Picture/Video
Pantry/Catering
✕ NO Pantry Car
✓ Catering Avbl
Loco/Rake Reversals
SRE/Saharanpur Junction (6); LRJ/Laksar Junction (4);
RSA - Rake Sharing
Rake/Coach Composition
LOCO-SLR-HCPV-GEN-GEN-AB1-S1-S2-S3-S4-S5-S6-S7-S8-S9-SLR
Loco
GZB WAP-7 NZM-BDTS. ddn to nzm tkd wdp 3a. By Er...
Read more...
Ankit Shotra Bhagat Entry# 595554
News    PNR    Forum    Time-Table    Availability    Fare Chart    Map    Arr/Dep History    Trips    Gallery    ΣChains    X/O    Timeline    
Travel Time: 13h 22m    30 halts    Distance: 615 km    Avg Speed: 46 km/hr
Type: Mail/Express
Zone: WR/Western
Departs @ 14:58 (Avg 22m late)
Platform# ???
SMTWTFS
Raoti/RTI 
Arrives @ 04:20 +1 night (Avg 2m late)
Platform# 1
SMTWTFS
Mumbai Bandra Terminus/BDTS 

30 halts. 108 intermediate Stations between Raoti and Mumbai Bandra Terminus

Show ALL intermediate Stations  Show Old Time-Table

#CodeStation NameX/OArrivesAvgDepartsAvgHaltPFDay#KmSpeedElevZoneAddress
1DDNDehradun (4)  -10:35+021-1066.641648mNRDehradun, Uttarakhand
2DWODoiwala  11:04+411:06+42m--1-1046.839484mNRDehradun, Uttarakhand
3RWLRaiwala Junction (2)X  11:38+411:40+172m21-1026.120361mNRRishikesh, Uttarakhand
4MOTCMotichur (2)X  12:00+812:02+102m11-1019.521312mNRHaridwar, Uttarakhand
5HWHaridwar Junction (9)X  12:15+912:45+1130m31-1015.030294mNRHaridwar, Uttarakhand
6JWPJwalapurX  12:53+1312:55+132m--1-1011.021292mNRHaridwar, Uttarakhand
7LRJLaksar Junction (4)X14:00+414:25+525m--1-988.059238mNRLaksar, Uttarakhand
8RKRoorkee (3)X  14:43+714:45+92m31-970.242264mNRRoorkee - 247667, Uttarakhand
9SRESaharanpur Junction (6)X15:35+216:05+030m41-935.546276mNRSaharanpur, Uttar Pradesh
10DBDDeoband (2)  16:50+516:52+72m21-901.351258mNRSaharanpur, Uttar Pradesh
11MOZMuzaffarnagar (3)X  17:20+617:22+212m21-877.367247mNRMuzaffarNagar, Uttar Pradesh
12KATKhatauli (2)  17:42+2517:44+252m11-855.173239mNRKhatauli, Uttar Pradesh
13MUTMeerut Cantt. (2)  18:08+3018:10+302m11-826.010230mNRMeerut, Uttar Pradesh
14MTCMeerut City Junction (6)X18:35+1519:20+845m41-821.783229mNRMeerut, Uttar Pradesh
15MDNRModinagar (2)X  19:34+1419:36+142m21-802.267221mNRGhaziabad, Uttar Pradesh
16MUDMuradnagar (2)  19:45+1519:47+152m21-792.147220mNRGhaziabad, Uttar Pradesh
17GZNNew Ghaziabad (2)X  20:02+620:04+62m21-780.414213mNRGhaziabad, Uttar Pradesh
18GZBGhaziabad Junction (6)X  20:30+320:32+42m41-774.545217mNRGhaziabad, Uttar Pradesh
19SBBSahibabad Junction (5)X  20:41+1020:43+102m--1-767.830209mNRGhaziabad, Uttar Pradesh
20NZMDelhi Hazrat Nizamuddin (7)O21:15+1621:55+1240m11-751.825209mNRNizamuddin East/Sarai KaleKhan Bus Terminal, Delhi NCT
21TKDTuglakabad (4)XO  22:18+1122:20+142m--1-742.128213mNRNear Tughlakabad Metro Station, Delhi NCT
22FDBFaridabad (4)  22:44+822:46+112m31-731.040206mNRold Faridabad, Haryana
23BVHBallabgarh (5)O  22:58+923:00+102m--1-722.935203mNRFaridabad, Haryana
24PWLPalwal (8)X  23:36+023:38+22m--1-701.785200mNRPalwal, Haryana
25KSVKosi Kalan (3)O  00:08+1800:10+192m22-659.229189mNCRKosi Kalan, Uttar Pradesh
26MTJMathura Junction (10)X  01:35-201:45+110m32-617.880179mNCRMathura, Uttar Pradesh
27BTEBharatpur Junction (5)  02:10+702:15+65m--2-584.384174mWCRBharatpur, Rajasthan
28BXNBayana Junction (3)XO  02:45+902:47+112m--2-542.374198mWCRBayana, Rajasthan
29FSPFateh SinghpuraO  03:03+1203:05+132m--2-522.679223mWCRState Highway 1, Rajasthan
30HANHindaun City (2)  03:15+1603:17+182m--2-509.468230mWCRKarauli, Rajasthan
31SMBJShri Mahabirji (3)O  03:26+1903:28+192m--2-499.249240mWCRKarauli, Rajasthan
32GGCGangapur City (3)  04:10+604:20+710m--2-465.164270mWCRGangapur, Rajasthan
33NNWNarayanpur Tatwara (2)X  04:36+804:38+82m--2-448.284256mWCRSawai Madhopur, Rajasthan
34MLZMalarnaX  04:50+1004:52+112m--2-431.465236mWCRSawai Madhopur, Rajasthan
35SWMSawai Madhopur Junction (4)XO  05:20+1005:25+105m--2-401.295266mWCRSawai Madhopur, Rajasthan
36IDGIndargarh Sumerganj Mandi (2)X  05:48+1605:50+182m--2-365.082247mWCRIndargarh, Rajasthan
37LKELakheri (3)  05:58+2006:00+202m--2-354.074228mWCRBundi, Rajasthan
38KPTNKeshorai PatanX  06:38+2006:40+232m--2-306.960243mWCRSH 33, Rajasthan
39GQLGurla  06:48+2706:50+302m--2-298.98251mWCRSH 33, Rajasthan
40KOTAKota Junction (5)X07:30+807:50+1320m22-293.551256mWCRKota, Rajasthan
41DKNTDakaniya Talav (2)  08:01+2008:03+222m22-284.285278mWCRKota, Rajasthan
42DARADaraX  08:30+2608:32+272m--2-246.155354mWCRDara, Rajasthan
43MKXMorak (2)X  08:48+2708:50+272m--2-231.342337mWCRMorak, Rajasthan
44RMARamganj Mandi Junction (3)  09:03+2509:05+282m--2-222.357358mWCRRamganj Mandi, Rajasthan
45JHWJhalawar Road (3)  09:18+2609:20+262m--2-209.955361mWCRJhalawar City, Rajasthan
46BWMBhawani Mandi (3)X  09:38+2309:40+292m--2-193.476384mWCRBhawani Mandi, Madhya Pradesh
47GOHGaroth (2)X  09:58+3010:00+302m12-170.826441mWCRMadhya Pradesh 458880, Madhya Pradesh
48SGZShamgarh (3)X  10:25+1710:30+215m--2-159.967463mWCRMandsaur, Madhya Pradesh
49SVASuwasra (2)  10:42+2410:44+252m--2-146.566450mWCRSuwasra, Madhya Pradesh
50CMUChau Mahla (3)  10:58+2611:00+272m12-131.135426mWCRJhalawar, Rajasthan
51THURThuriaX  11:24+1611:26+172m--2-117.021430mWCRMDR 45, Madhya Pradesh
52VMAVikramgarh Alot (2)X  11:48+611:50+122m12-109.361443mWCRKota Division, Madhya Pradesh
53LNRLuni Richha  12:03+1112:05+112m--2-96.028471mWCRAlote, Madhya Pradesh
54MEPMahidpur Road  12:28+012:30+32m--2-85.429493mWCRGogapur, Madhya Pradesh
55NADNagda Junction (4)  13:05+113:15+310m--2-68.475468mWRNagda, Madhya Pradesh
56KUHKhachrod (2)  13:26+913:28+92m--2-54.657497mWRUjjain, Madhya Pradesh
57RNHRunkheraX  13:39+713:41+72m--2-44.163478mWRUjjain, Madhya Pradesh
58BODBangrodX  13:48+813:50+72m--2-36.724484mWRRatlam, Madhya Pradesh
59RTMRatlam Junction (7)X  14:15+614:35+1120m42-26.977495mWRRatlam, Madhya Pradesh
60RTI»Raoti (2)»  14:56+2114:58+222m--20.071409mWRState Highway 39A, Madhya Pradesh
61BOGBhairongarh (2)  15:08+2315:10+232m--211.951374mWRBhairongarh Railway Station, Madhya Pradesh
62BMIBamnia (2)  15:17+2515:19+242m--217.842392mWRBamnia, Madhya Pradesh
63AGRAmargarh (2)  15:25+2415:27+232m--222.057410mWRSH 39A, Madhya Pradesh
64PCNPanch Pipila (2)  15:37+2315:39+222m--231.584369mWRSH 39A, Madhya Pradesh
65THDRThandla Road (2)  15:49+2515:51+252m--245.460317mWRJhabua, Madhya Pradesh
66MGNMeghnagar (3)  15:59+2516:01+262m--253.473317mWRJhabua, Madhya Pradesh
67ANASAnas (2)  16:13+2616:15+262m--267.979288mWRMadhya Pradesh 389154 ?, Madhya Pradesh
68BIOBordi (2)  16:21+2816:23+272m--275.953289mWRNational Highway 59, Gujarat
69DHDDahod (3)  16:35+2916:40+305m--286.576313mWRDahod, Gujarat
70LMKLimkheda  17:06+3417:08+332m--2119.468205mWRLimkheda, Gujarat
71PPDPiplod Junction  17:15+3417:17+332m--2127.479209mWRPiplod, Gujarat
72SATSant Road (2)X  17:26+3417:28+332m22139.220169mWROrwara, Gujarat
73GDAGodhra Junction (3)X  18:30+718:35+95m102159.665122mWRGodhra, Gujarat
74KRSAKharsaliya (2)  18:45+1218:47+122m--2170.585107mWRPanchmahal, Gujarat
75DRLDerolX  18:56+1318:58+132m12183.26881mWRKalol, Gujarat
76CPNChampaner Road JunctionX  19:09+1419:11+142m--2195.77578mWRPanchmahal, Gujarat
77SMLASamlaya Junction (3)X  19:20+1319:22+132m--2206.94867mWRVadodara, Gujarat
78BRCVadodara Junction (7)  19:55+2020:05+2210m32233.58936mWRVadodara 390005, Gujarat
79MYGMiyagam Karjan (2)  20:25+2820:27+272m--2263.37229mWRKarjan, Gujarat
80BHBharuch Junction (5)  21:01+2821:03+272m42304.06219mWRBharuch, Gujarat
81AKVAnkleshwar Junction (4)X  21:12+2821:14+282m22313.37419mWRAnkleshwar, Gujarat
82KSBKosamba Junction (3)X21:29+3021:31+252m--2331.93230mWRKosamba, Gujarat
83STSurat (4)X  22:30+1422:38+148m22363.37119mWRSurat 395001, Gujarat
84NVSNavsari (3)  23:03+2223:05+222m--2392.97914mWRNavsari, Gujarat
85BIMBilimora Junction (4)X  23:21+2923:23+292m--2414.13611mWRBilimora, Gujarat
86BLValsad (3)  23:53+2223:55+272m32432.03815mWRValsad, Gujarat
87VAPIVapi (3)X  00:36+1400:38+162m--3458.25727mWRVapi, Gujarat
88PLGPalghar (3)  02:04+1602:06+192m--3539.73719mWRPalghar, Maharashtra
89VRVirar (8)  02:56+602:58+82m--3570.9486mWRThane, Maharashtra
90BVIMumbai Borivali (8)  03:30+403:32+72m53596.72319mWRMumbai - 400092, Maharashtra
91BDTS•Mumbai Bandra Terminus (5)•  04:20+2-13615.4-4mWRMumbai 400050, Maharashtra
Scroll to Top
Scroll to Bottom